Terminal Aerodrome Forecast
Issued by NWS Wilmington, OH

Home | Current Version | Previous Version | Text Only | Print | Product List | Glossary On
Versions: 1 2 3 4 5 6 7 8 9 10 11 12 13 14 15 16 17 18 19 20 21 22 23 24 25
664
FTUS41 KILN 230251 AAC
TAFCVG
TAF AMD
KCVG 230251Z 2303/2406 19012G18KT P6SM -SHRA SCT015 BKN035
     FM230400 18011KT P6SM VCSH BKN015 OVC022
      TEMPO 2305/2309 BKN008 OVC015
     FM231300 21012G18KT 5SM SHRA BR OVC015
      TEMPO 2315/2319 3SM +SHRA OVC010
     FM240000 25008KT P6SM VCSH BKN015 OVC100
     FM240300 33007KT P6SM SCT015=

USA.gov is the U.S. government's official web portal to all federal, state and local government web resources and services.